Haskell, Arkansas
Current Conditions -  °F | °C
As of 3:53 PM on Tuesday 21 Oct 2014 (Local Time) from KLIT Reporting Station
Few Clouds Few Clouds  
Wind Chill: 80°   Ceiling: Unl
Heat Index: 80°   Visibility: 10mi
Dew Point: 49°   Wind: 0mph
Humidity: 34%   Direction: NA
Pressure: 30.04"   Gusts: NA
Location:  34.5666°N, 92.583°W
Report Text: KLIT 212053Z 00000KT 10SM FEW050 27/09 A3004 RMK AO2 SLP173 T02670094 56020
Loading
Personal Weather Stations






























Interactive Weather Map
Tropical Storm Tracking
New forecast layout! Learn more

10-Day Weather Forecast

Advertisements
Track Severe Weather on mobile